createdAt,value
2023-03-02T00:00:11.615Z,70.20
2023-03-02T00:02:12.062Z,70.30
2023-03-02T00:04:12.387Z,70.09
2023-03-02T00:06:12.651Z,70.20
2023-03-02T00:08:12.969Z,70.51
2023-03-02T00:10:13.342Z,70.82
2023-03-02T00:12:13.618Z,70.40
2023-03-02T00:14:13.968Z,70.82
2023-03-02T00:16:14.293Z,70.85
2023-03-02T00:18:14.623Z,71.27
2023-03-02T00:20:14.893Z,71.23
2023-03-02T00:22:15.233Z,70.82
2023-03-02T00:24:15.495Z,71.03
2023-03-02T00:26:15.764Z,71.06
2023-03-02T00:28:16.097Z,71.58
2023-03-02T00:30:16.461Z,71.27
2023-03-02T00:32:17.624Z,71.37
2023-03-02T00:34:17.958Z,71.37
2023-03-02T00:36:18.311Z,71.58
2023-03-02T00:38:19.277Z,71.92
2023-03-02T00:40:20.119Z,72.13
2023-03-02T00:42:20.456Z,72.03
2023-03-02T00:44:20.811Z,71.92
2023-03-02T00:46:21.205Z,71.82
2023-03-02T00:48:21.471Z,71.72
2023-03-02T00:50:21.844Z,71.51
2023-03-02T00:52:22.122Z,71.41
2023-03-02T00:54:22.431Z,71.72
2023-03-02T00:56:22.729Z,71.61
2023-03-02T00:58:23.044Z,71.17
2023-03-02T01:00:23.350Z,70.75
2023-03-02T01:02:23.814Z,71.17
2023-03-02T01:04:24.180Z,70.95
2023-03-02T01:06:24.566Z,70.43
2023-03-02T01:08:24.931Z,70.09
2023-03-02T01:10:26.118Z,70.33
2023-03-02T01:12:26.536Z,70.02
2023-03-02T01:14:27.276Z,69.78
2023-03-02T01:16:28.181Z,69.78
2023-03-02T01:18:28.523Z,69.68
2023-03-02T01:20:28.820Z,69.68
2023-03-02T01:22:29.144Z,69.47
2023-03-02T01:24:34.193Z,70.33
2023-03-02T01:26:39.270Z,71.09
2023-03-02T01:28:39.567Z,71.72
2023-03-02T01:30:39.825Z,70.99
2023-03-02T01:32:40.204Z,71.20
2023-03-02T01:34:40.528Z,71.72
2023-03-02T01:36:40.821Z,72.17
2023-03-02T01:38:41.172Z,72.69
2023-03-02T01:40:41.485Z,72.83
2023-03-02T01:42:41.811Z,73.14
2023-03-02T01:44:42.106Z,73.14
2023-03-02T01:46:42.379Z,73.55
2023-03-02T01:48:42.813Z,73.66
2023-03-02T01:50:44.450Z,73.66
2023-03-02T01:52:45.501Z,73.14
2023-03-02T01:54:45.924Z,73.45
2023-03-02T01:56:47.295Z,73.35
2023-03-02T01:58:48.280Z,73.66
2023-03-02T02:00:48.797Z,73.80
2023-03-02T02:02:49.424Z,74.01
2023-03-02T02:04:49.887Z,73.69
2023-03-02T02:06:50.478Z,73.69
2023-03-02T02:08:50.791Z,74.11
2023-03-02T02:10:51.685Z,73.90
2023-03-02T02:12:55.672Z,73.90
2023-03-02T02:14:56.708Z,73.69
2023-03-02T02:17:03.909Z,73.90
2023-03-02T02:19:04.443Z,73.80
2023-03-02T02:21:07.831Z,73.69
2023-03-02T02:23:08.690Z,73.49
2023-03-02T02:25:09.059Z,73.83
2023-03-02T02:27:12.255Z,74.35
2023-03-02T02:29:12.565Z,74.21
2023-03-02T02:31:12.952Z,73.80
2023-03-02T02:33:13.249Z,73.80
2023-03-02T02:35:13.566Z,74.01
2023-03-02T02:37:13.889Z,74.21
2023-03-02T02:39:14.259Z,73.90
2023-03-02T02:41:14.681Z,73.49
2023-03-02T02:43:14.964Z,73.59
2023-03-02T02:45:15.254Z,73.27
2023-03-02T02:47:15.576Z,73.27
2023-03-02T02:49:15.895Z,73.38
2023-03-02T02:51:16.184Z,73.38
2023-03-02T02:53:16.594Z,73.24
2023-03-02T02:55:16.936Z,73.24
2023-03-02T02:57:17.250Z,73.14
2023-03-02T02:59:17.585Z,73.14
2023-03-02T03:01:18.008Z,73.17
2023-03-02T03:03:18.313Z,73.10
2023-03-02T03:05:18.660Z,73.21
2023-03-02T03:07:18.956Z,73.45
2023-03-02T03:09:19.259Z,73.86
2023-03-02T03:11:19.533Z,74.18
2023-03-02T03:13:24.778Z,74.32
2023-03-02T03:15:25.114Z,74.73
2023-03-02T03:17:25.413Z,74.87
2023-03-02T03:19:25.732Z,75.18
2023-03-02T03:21:26.017Z,75.43
2023-03-02T03:23:26.297Z,75.63
2023-03-02T03:25:26.821Z,75.85
2023-03-02T03:27:27.109Z,76.20
2023-03-02T03:29:27.507Z,76.30
2023-03-02T03:31:27.837Z,76.86
2023-03-02T03:33:28.108Z,77.28
2023-03-02T03:35:28.442Z,77.59
2023-03-02T03:37:28.723Z,77.66
2023-03-02T03:39:29.038Z,77.55
2023-03-02T03:41:29.471Z,77.66
2023-03-02T03:43:29.751Z,77.66
2023-03-02T03:45:30.512Z,77.45
2023-03-02T03:47:30.924Z,77.14
2023-03-02T03:49:31.263Z,77.24
2023-03-02T03:51:31.544Z,77.34
2023-03-02T03:53:32.248Z,77.34
2023-03-02T03:55:32.577Z,77.55
2023-03-02T03:57:32.980Z,77.80
2023-03-02T03:59:33.306Z,78.11
2023-03-02T04:01:33.673Z,78.01
2023-03-02T04:03:33.972Z,77.97
2023-03-02T04:05:34.422Z,77.76
2023-03-02T04:07:34.711Z,77.66
2023-03-02T04:09:35.192Z,77.66
2023-03-02T04:11:35.501Z,77.66
2023-03-02T04:13:35.784Z,77.55
2023-03-02T04:15:36.272Z,77.55
2023-03-02T04:17:36.525Z,77.45
2023-03-02T04:19:37.445Z,77.97
2023-03-02T04:21:38.686Z,77.87
2023-03-02T04:23:39.022Z,77.76
2023-03-02T04:25:39.332Z,77.45
2023-03-02T04:27:39.625Z,77.34
2023-03-02T04:29:39.918Z,77.14
2023-03-02T04:31:40.292Z,77.59
2023-03-02T04:33:41.161Z,77.90
2023-03-02T04:35:41.912Z,78.22
2023-03-02T04:37:42.241Z,78.11
2023-03-02T04:39:42.569Z,77.80
2023-03-02T04:41:42.919Z,77.48
2023-03-02T04:43:43.258Z,77.73
2023-03-02T04:45:48.399Z,77.94
2023-03-02T04:47:48.770Z,78.25
2023-03-02T04:49:49.101Z,78.25
2023-03-02T04:51:49.394Z,78.18
2023-03-02T04:53:49.701Z,78.39
2023-03-02T04:55:50.001Z,78.29
2023-03-02T04:57:51.359Z,78.64
2023-03-02T04:59:52.172Z,79.05
2023-03-02T05:01:52.570Z,79.37
2023-03-02T05:03:52.887Z,79.68
2023-03-02T05:05:53.203Z,80.00
2023-03-02T05:07:53.536Z,80.10
2023-03-02T05:09:53.831Z,80.10
2023-03-02T05:11:54.106Z,80.35
2023-03-02T05:13:54.490Z,80.35
2023-03-02T05:15:54.852Z,80.04
2023-03-02T05:17:55.164Z,80.14
2023-03-02T05:19:55.537Z,80.14
2023-03-02T05:21:55.822Z,80.46
2023-03-02T05:23:56.133Z,80.49
2023-03-02T05:25:56.402Z,80.66
2023-03-02T05:27:56.697Z,80.87
2023-03-02T05:29:57.037Z,80.77
2023-03-02T05:31:57.587Z,80.66
2023-03-02T05:33:58.070Z,80.77
2023-03-02T05:35:58.445Z,80.66
2023-03-02T05:37:58.891Z,80.56
2023-03-02T05:39:59.406Z,80.35
2023-03-02T05:41:59.829Z,80.31
2023-03-02T05:44:00.156Z,80.10
2023-03-02T05:46:00.414Z,79.90
2023-03-02T05:48:00.829Z,79.79
2023-03-02T05:50:01.163Z,79.68
2023-03-02T05:52:01.544Z,79.58
2023-03-02T05:54:06.649Z,79.58
2023-03-02T05:56:06.919Z,79.23
2023-03-02T05:58:07.178Z,78.99
2023-03-02T06:00:07.588Z,79.02
2023-03-02T06:02:07.969Z,78.77
2023-03-02T06:04:08.306Z,79.02
2023-03-02T06:06:08.633Z,79.23
2023-03-02T06:08:08.976Z,79.23
2023-03-02T06:10:09.247Z,79.44
2023-03-02T06:12:09.580Z,79.44
2023-03-02T06:14:09.903Z,79.44
2023-03-02T06:16:10.269Z,79.44
2023-03-02T06:18:10.603Z,79.44
2023-03-02T06:20:11.168Z,79.44
2023-03-02T06:22:11.722Z,79.44
2023-03-02T06:24:12.132Z,79.23
2023-03-02T06:26:12.364Z,79.19
2023-03-02T06:28:12.686Z,79.30
2023-03-02T06:30:12.988Z,79.19
2023-03-02T06:32:13.484Z,79.19
2023-03-02T06:34:14.664Z,79.19
2023-03-02T06:36:14.991Z,79.19
2023-03-02T06:38:15.318Z,79.30
2023-03-02T06:40:15.708Z,79.09
2023-03-02T06:42:15.986Z,79.09
2023-03-02T06:44:16.279Z,79.09
2023-03-02T06:46:17.210Z,79.19
2023-03-02T06:48:17.439Z,79.09
2023-03-02T06:50:17.742Z,78.95
2023-03-02T06:52:18.065Z,78.74
2023-03-02T06:54:18.361Z,78.74
2023-03-02T06:56:18.649Z,78.63
2023-03-02T06:58:18.957Z,78.28
2023-03-02T07:00:19.240Z,77.83
2023-03-02T07:02:19.527Z,77.41
2023-03-02T07:04:19.807Z,77.27
2023-03-02T07:06:20.137Z,77.27
2023-03-02T07:08:20.452Z,77.48
2023-03-02T07:10:20.744Z,77.38
2023-03-02T07:12:21.010Z,77.38
2023-03-02T07:14:21.410Z,77.17
2023-03-02T07:16:21.791Z,76.92
2023-03-02T07:18:22.059Z,76.72
2023-03-02T07:20:22.372Z,76.82
2023-03-02T07:22:22.669Z,76.68
2023-03-02T07:24:22.987Z,76.26
2023-03-02T07:26:23.252Z,75.60
2023-03-02T07:28:23.539Z,75.08
2023-03-02T07:30:23.856Z,74.74
2023-03-02T07:32:24.348Z,74.32
2023-03-02T07:34:24.739Z,74.01
2023-03-02T07:36:24.980Z,73.76
2023-03-02T07:38:31.184Z,73.55
2023-03-02T07:40:31.466Z,73.66
2023-03-02T07:42:31.781Z,73.66
2023-03-02T07:44:32.116Z,73.66
2023-03-02T07:46:32.455Z,73.21
2023-03-02T07:48:32.740Z,73.00
2023-03-02T07:50:33.053Z,72.58
2023-03-02T07:52:33.326Z,72.45
2023-03-02T07:54:33.683Z,72.97
2023-03-02T07:56:34.000Z,72.45
2023-03-02T07:58:35.349Z,72.00
2023-03-02T08:00:35.676Z,72.31
2023-03-02T08:02:36.008Z,72.10
2023-03-02T08:04:36.338Z,72.20
2023-03-02T08:06:36.584Z,71.86
2023-03-02T08:08:36.866Z,72.07
2023-03-02T08:10:37.266Z,71.83
2023-03-02T08:12:37.575Z,71.83
2023-03-02T08:14:37.867Z,71.93
2023-03-02T08:16:38.230Z,71.69
2023-03-02T08:18:38.529Z,71.55
2023-03-02T08:20:38.827Z,69.65
2023-03-02T08:22:39.126Z,69.21
2023-03-02T08:24:39.392Z,69.00
2023-03-02T08:26:39.718Z,69.17
2023-03-02T08:28:40.008Z,68.34
2023-03-02T08:30:40.358Z,67.38
2023-03-02T08:32:40.709Z,67.48
2023-03-02T08:34:41.026Z,67.76
2023-03-02T08:36:41.370Z,67.66
2023-03-02T08:38:41.667Z,66.90
2023-03-02T08:40:41.989Z,66.80
2023-03-02T08:42:42.287Z,67.00
2023-03-02T08:44:42.633Z,67.21
2023-03-02T08:46:42.881Z,66.35
2023-03-02T08:48:43.222Z,65.84
2023-03-02T08:50:43.544Z,65.94
2023-03-02T08:52:43.847Z,66.25
2023-03-02T08:54:44.208Z,66.22
2023-03-02T08:56:44.514Z,65.50
2023-03-02T08:58:44.789Z,65.60
2023-03-02T09:00:45.142Z,64.53
2023-03-02T09:02:45.456Z,65.16
2023-03-02T09:04:45.802Z,63.57
2023-03-02T09:06:46.691Z,64.20
2023-03-02T09:08:46.962Z,63.57
2023-03-02T09:10:47.261Z,63.99
2023-03-02T09:12:47.600Z,63.23
2023-03-02T09:14:47.932Z,63.03
2023-03-02T09:16:48.276Z,62.69
2023-03-02T09:18:48.576Z,62.59
2023-03-02T09:20:48.885Z,63.31
2023-03-02T09:22:49.170Z,62.79
2023-03-02T09:24:49.479Z,62.04
2023-03-02T09:26:49.788Z,62.35
2023-03-02T09:28:50.075Z,62.66
2023-03-02T09:30:50.396Z,61.32
2023-03-02T09:32:50.842Z,61.42
2023-03-02T09:34:51.164Z,61.73
2023-03-02T09:36:51.491Z,62.01
2023-03-02T09:38:51.819Z,60.67
2023-03-02T09:40:52.179Z,61.80
2023-03-02T09:42:52.456Z,62.60
2023-03-02T09:44:52.774Z,60.85
2023-03-02T09:46:53.102Z,61.05
2023-03-02T09:48:53.397Z,60.33
2023-03-02T09:50:54.204Z,59.89
2023-03-02T09:52:54.490Z,60.21
2023-03-02T09:54:54.785Z,60.72
2023-03-02T09:56:55.094Z,60.59
2023-03-02T09:58:55.386Z,60.59
2023-03-02T10:00:55.664Z,59.04
2023-03-02T10:02:58.739Z,60.17
2023-03-02T10:05:01.175Z,59.45
2023-03-02T10:07:01.466Z,58.70
2023-03-02T10:09:01.778Z,59.94
2023-03-02T10:11:02.064Z,60.53
2023-03-02T10:13:02.392Z,58.37
2023-03-02T10:15:02.675Z,59.40
2023-03-02T10:17:03.021Z,58.37
2023-03-02T10:19:05.295Z,57.96
2023-03-02T10:21:05.815Z,58.14
2023-03-02T10:23:06.111Z,57.73
2023-03-02T10:25:06.421Z,58.86
2023-03-02T10:27:06.681Z,57.82
2023-03-02T10:29:07.112Z,57.29
2023-03-02T10:31:07.464Z,57.39
2023-03-02T10:33:07.784Z,57.90
2023-03-02T10:35:08.071Z,57.39
2023-03-02T10:37:08.343Z,57.39
2023-03-02T10:39:08.651Z,58.29
2023-03-02T10:41:08.938Z,57.46
2023-03-02T10:43:09.248Z,57.23
2023-03-02T10:45:09.586Z,57.34
2023-03-02T10:47:09.880Z,56.31
2023-03-02T10:49:10.323Z,56.28
2023-03-02T10:51:10.699Z,57.10
2023-03-02T10:53:11.012Z,56.67
2023-03-02T10:55:18.265Z,55.54
2023-03-02T10:57:18.674Z,56.05
2023-03-02T10:59:19.008Z,55.82
2023-03-02T11:01:19.374Z,56.23
2023-03-02T11:03:22.364Z,55.21
2023-03-02T11:05:22.770Z,55.10
2023-03-02T11:07:23.236Z,55.90
2023-03-02T11:09:23.562Z,54.57
2023-03-02T11:11:23.935Z,54.95
2023-03-02T11:13:24.340Z,54.53
2023-03-02T11:15:24.656Z,55.46
2023-03-02T11:17:24.991Z,54.74
2023-03-02T11:19:25.346Z,53.59
2023-03-02T11:21:25.695Z,53.90
2023-03-02T11:23:26.004Z,54.28
2023-03-02T11:25:27.279Z,54.08
2023-03-02T11:27:27.630Z,54.54
2023-03-02T11:29:27.951Z,52.49
2023-03-02T11:31:28.378Z,51.86
2023-03-02T11:33:28.704Z,50.83
2023-03-02T11:35:29.866Z,51.62
2023-03-02T11:37:30.149Z,51.12
2023-03-02T11:39:30.509Z,51.09
2023-03-02T11:41:31.247Z,50.37
2023-03-02T11:43:31.915Z,52.78
2023-03-02T11:45:32.312Z,50.69
2023-03-02T11:47:32.592Z,49.34
2023-03-02T11:49:33.804Z,48.11
2023-03-02T11:51:34.703Z,48.34
2023-03-02T11:53:35.276Z,48.14
2023-03-02T11:55:35.719Z,48.14
2023-03-02T11:57:37.909Z,47.71
2023-03-02T11:59:39.017Z,47.71
2023-03-02T12:01:39.428Z,48.02
2023-03-02T12:03:40.358Z,48.30
2023-03-02T12:05:40.792Z,48.19
2023-03-02T12:07:41.303Z,47.87
2023-03-02T12:09:41.676Z,47.16
2023-03-02T12:11:41.973Z,47.77
2023-03-02T12:13:42.292Z,47.24
2023-03-02T12:15:42.589Z,46.30
2023-03-02T12:17:43.055Z,46.09
2023-03-02T12:19:43.329Z,46.93
2023-03-02T12:21:43.700Z,45.67
2023-03-02T12:23:44.029Z,45.99
2023-03-02T12:25:44.337Z,46.52
2023-03-02T12:27:44.709Z,47.64
2023-03-02T12:29:44.980Z,46.52
2023-03-02T12:31:45.376Z,45.91
2023-03-02T12:33:45.667Z,46.62
2023-03-02T12:35:46.003Z,46.60
2023-03-02T12:37:46.309Z,46.60
2023-03-02T12:39:46.636Z,46.62
2023-03-02T12:41:46.929Z,47.01
2023-03-02T12:43:47.209Z,45.97
2023-03-02T12:45:47.589Z,46.37
2023-03-02T12:47:48.328Z,45.87
2023-03-02T12:49:48.759Z,45.46
2023-03-02T12:51:49.215Z,45.34
2023-03-02T12:53:49.590Z,46.03
2023-03-02T12:55:49.978Z,44.40
2023-03-02T12:57:50.237Z,45.40
2023-03-02T12:59:50.532Z,46.78
2023-03-02T13:01:50.831Z,46.58
2023-03-02T13:03:51.132Z,47.47
2023-03-02T13:05:51.436Z,46.15
2023-03-02T13:07:51.926Z,46.15
2023-03-02T13:09:56.781Z,46.76
2023-03-02T13:11:57.402Z,46.05
2023-03-02T13:13:57.732Z,46.37
2023-03-02T13:15:58.036Z,45.97
2023-03-02T13:17:58.340Z,46.97
2023-03-02T13:19:58.632Z,46.03
2023-03-02T13:21:58.979Z,47.22
2023-03-02T13:23:59.268Z,45.20
2023-03-02T13:25:59.595Z,45.17
2023-03-02T13:27:59.912Z,45.56
2023-03-02T13:30:00.188Z,45.15
2023-03-02T13:32:00.507Z,45.36
2023-03-02T13:34:00.957Z,46.27
2023-03-02T13:36:06.191Z,45.03
2023-03-02T13:38:06.538Z,44.32
2023-03-02T13:40:06.857Z,44.44
2023-03-02T13:42:07.140Z,45.07
2023-03-02T13:44:07.433Z,46.01
2023-03-02T13:46:08.320Z,44.95
2023-03-02T13:48:08.692Z,44.44
2023-03-02T13:50:09.025Z,45.36
2023-03-02T13:52:09.364Z,45.68
2023-03-02T13:54:09.621Z,45.17
2023-03-02T13:56:14.808Z,44.77
2023-03-02T13:58:15.121Z,45.58
2023-03-02T14:00:15.404Z,45.07
2023-03-02T14:02:15.705Z,45.46
2023-03-02T14:04:16.174Z,44.95
2023-03-02T14:06:16.479Z,44.34
2023-03-02T14:08:16.765Z,45.76
2023-03-02T14:10:17.060Z,44.74
2023-03-02T14:12:17.450Z,44.36
2023-03-02T14:14:17.789Z,45.89
2023-03-02T14:16:18.009Z,45.48
2023-03-02T14:18:18.332Z,45.37
2023-03-02T14:20:18.614Z,44.87
2023-03-02T14:22:18.911Z,45.78
2023-03-02T14:24:19.221Z,44.85
2023-03-02T14:26:19.645Z,43.59
2023-03-02T14:28:20.194Z,43.98
2023-03-02T14:30:21.367Z,43.04
2023-03-02T14:32:22.375Z,42.03
2023-03-02T14:34:22.621Z,42.76
2023-03-02T14:36:22.934Z,42.76
2023-03-02T14:38:23.290Z,43.69
2023-03-02T14:40:23.573Z,42.98
2023-03-02T14:42:23.870Z,43.38
2023-03-02T14:44:24.202Z,43.69
2023-03-02T14:46:24.613Z,44.30
2023-03-02T14:48:24.923Z,44.18
2023-03-02T14:50:25.269Z,43.38
2023-03-02T14:52:25.608Z,43.84
2023-03-02T14:54:25.929Z,44.10
2023-03-02T14:56:26.198Z,43.59
2023-03-02T14:58:26.916Z,43.29
2023-03-02T15:00:27.284Z,44.34
2023-03-02T15:02:28.079Z,44.24
2023-03-02T15:04:28.415Z,43.93
2023-03-02T15:06:28.756Z,43.91
2023-03-02T15:08:29.097Z,43.71
2023-03-02T15:10:30.294Z,43.81
2023-03-02T15:12:30.587Z,44.54
2023-03-02T15:14:31.823Z,44.24
2023-03-02T15:16:32.174Z,44.52
2023-03-02T15:18:32.523Z,43.51
2023-03-02T15:20:32.766Z,44.44
2023-03-02T15:22:33.126Z,44.97
2023-03-02T15:24:33.726Z,45.17
2023-03-02T15:26:33.966Z,45.07
2023-03-02T15:28:34.339Z,44.89
2023-03-02T15:30:34.646Z,44.99
2023-03-02T15:32:35.035Z,44.77
2023-03-02T15:34:35.287Z,45.17
2023-03-02T15:36:35.583Z,44.67
2023-03-02T15:38:35.900Z,44.87
2023-03-02T15:40:41.081Z,44.46
2023-03-02T15:42:41.438Z,44.24
2023-03-02T15:44:41.710Z,44.24
2023-03-02T15:46:42.035Z,44.77
2023-03-02T15:48:42.378Z,45.80
2023-03-02T15:50:42.669Z,45.70
2023-03-02T15:52:42.945Z,46.33
2023-03-02T15:54:43.258Z,46.25
2023-03-02T15:56:44.559Z,47.19
2023-03-02T15:58:44.844Z,47.90
2023-03-02T16:00:45.235Z,47.90
2023-03-02T16:02:45.640Z,47.92
2023-03-02T16:04:46.018Z,48.94
2023-03-02T16:06:46.341Z,48.43
2023-03-02T16:08:46.650Z,48.64
2023-03-02T16:10:46.999Z,49.07
2023-03-02T16:12:47.273Z,49.37
2023-03-02T16:14:47.567Z,49.80
2023-03-02T16:16:47.958Z,50.23
2023-03-02T16:18:48.250Z,50.15
2023-03-02T16:20:48.588Z,50.48
2023-03-02T16:22:48.916Z,50.89
2023-03-02T16:24:49.190Z,51.32
2023-03-02T16:26:49.514Z,51.93
2023-03-02T16:28:49.773Z,52.37
2023-03-02T16:30:50.113Z,52.67
2023-03-02T16:32:50.558Z,53.01
2023-03-02T16:34:50.891Z,53.34
2023-03-02T16:36:56.037Z,53.23
2023-03-02T16:38:56.324Z,53.64
2023-03-02T16:40:57.271Z,53.34
2023-03-02T16:42:57.578Z,53.67
2023-03-02T16:44:57.968Z,53.98
2023-03-02T16:46:58.414Z,54.08
2023-03-02T16:48:58.696Z,54.72
2023-03-02T16:50:59.007Z,54.51
2023-03-02T16:52:59.282Z,54.72
2023-03-02T16:54:59.604Z,55.43
2023-03-02T16:56:59.869Z,55.66
2023-03-02T16:59:00.470Z,56.61
2023-03-02T17:01:00.858Z,56.33
2023-03-02T17:03:01.125Z,56.64
2023-03-02T17:05:01.458Z,57.48
2023-03-02T17:07:01.861Z,58.23
2023-03-02T17:09:02.360Z,58.54
2023-03-02T17:11:02.690Z,58.77
2023-03-02T17:13:03.003Z,58.97
2023-03-02T17:15:03.288Z,58.90
2023-03-02T17:17:03.595Z,59.92
2023-03-02T17:19:03.855Z,60.05
2023-03-02T17:21:04.395Z,60.26
2023-03-02T17:23:04.730Z,60.60
2023-03-02T17:25:05.090Z,61.00
2023-03-02T17:27:13.113Z,61.42
2023-03-02T17:29:10.592Z,61.11
2023-03-02T17:31:11.496Z,61.00
2023-03-02T17:33:11.835Z,61.55
2023-03-02T17:35:12.258Z,61.42
2023-03-02T17:37:12.529Z,61.32
2023-03-02T17:39:12.811Z,60.91
2023-03-02T17:41:13.113Z,60.19
2023-03-02T17:43:13.465Z,60.01
2023-03-02T17:45:13.766Z,60.31
2023-03-02T17:47:14.279Z,60.11
2023-03-02T17:49:16.578Z,59.83
2023-03-02T17:52:48.019Z,59.93
2023-03-02T17:54:48.783Z,59.63
2023-03-02T17:56:49.253Z,59.22
2023-03-02T17:58:49.748Z,58.59
2023-03-02T18:00:50.833Z,58.80
2023-03-02T18:02:52.346Z,58.83
2023-03-02T18:04:52.679Z,58.73
2023-03-02T18:06:54.097Z,58.96
2023-03-02T18:08:54.468Z,58.65
2023-03-02T18:10:54.743Z,58.75
2023-03-02T18:12:55.272Z,58.75
2023-03-02T18:14:55.565Z,58.86
2023-03-02T18:16:55.908Z,59.27
2023-03-02T18:18:56.162Z,59.47
2023-03-02T18:20:56.484Z,59.58
2023-03-02T18:22:57.105Z,59.91
2023-03-02T18:24:57.368Z,59.91
2023-03-02T18:26:57.812Z,59.91
2023-03-02T18:28:58.069Z,59.91
2023-03-02T18:30:58.452Z,60.02
2023-03-02T18:32:58.732Z,60.35
2023-03-02T18:34:59.046Z,60.66
2023-03-02T18:36:59.368Z,60.66
2023-03-02T18:38:59.664Z,60.97
2023-03-02T18:41:00.348Z,61.07
2023-03-02T18:43:01.451Z,61.31
2023-03-02T18:45:01.874Z,61.41
2023-03-02T18:47:02.187Z,61.82
2023-03-02T18:49:02.619Z,62.06
2023-03-02T18:51:02.914Z,62.47
2023-03-02T18:53:04.209Z,62.60
2023-03-02T18:55:04.536Z,62.71
2023-03-02T18:57:04.807Z,63.01
2023-03-02T18:59:05.092Z,63.43
2023-03-02T19:01:05.424Z,63.56
2023-03-02T19:03:05.970Z,63.87
2023-03-02T19:05:12.533Z,64.11
2023-03-02T19:07:12.921Z,64.42
2023-03-02T19:09:13.369Z,64.52
2023-03-02T19:11:13.695Z,64.62
2023-03-02T19:13:13.959Z,64.83
2023-03-02T19:15:14.320Z,64.83
2023-03-02T19:17:19.509Z,64.96
2023-03-02T19:19:19.872Z,65.27
2023-03-02T19:21:20.252Z,65.06
2023-03-02T19:23:20.536Z,66.03
2023-03-02T19:25:21.001Z,66.23
2023-03-02T19:27:21.347Z,66.47
2023-03-02T19:29:21.791Z,66.67
2023-03-02T19:31:22.150Z,66.67
2023-03-02T19:33:22.407Z,66.57
2023-03-02T19:35:23.026Z,66.57
2023-03-02T19:37:23.420Z,66.47
2023-03-02T19:39:23.718Z,66.57
2023-03-02T19:41:23.988Z,66.44
2023-03-02T19:43:25.158Z,66.36
2023-03-02T19:45:25.530Z,66.36
2023-03-02T19:47:25.867Z,66.67
2023-03-02T19:49:26.298Z,66.60
2023-03-02T19:51:26.738Z,66.50
2023-03-02T19:53:26.991Z,66.71
2023-03-02T19:55:27.415Z,66.67
2023-03-02T19:57:27.657Z,66.50
2023-03-02T20:00:09.661Z,66.50
2023-03-02T20:02:09.996Z,66.94
2023-03-02T20:04:10.361Z,67.88
2023-03-02T20:06:10.676Z,68.22
2023-03-02T20:08:11.048Z,68.63
2023-03-02T20:10:11.401Z,68.84
2023-03-02T20:12:11.669Z,69.35
2023-03-02T20:14:14.854Z,69.04
2023-03-02T20:16:17.230Z,69.04
2023-03-02T20:18:17.605Z,68.84
2023-03-02T20:20:17.867Z,69.04
2023-03-02T20:22:18.237Z,68.84
2023-03-02T20:24:18.571Z,69.15
2023-03-02T20:26:18.965Z,69.70
2023-03-02T20:28:19.260Z,69.80
2023-03-02T20:30:19.537Z,72.60
2023-03-02T20:32:19.909Z,73.84
2023-03-02T20:34:20.288Z,74.02
2023-03-02T20:36:20.612Z,73.71
2023-03-02T20:38:20.857Z,74.43
2023-03-02T20:40:21.242Z,74.63
2023-03-02T20:42:21.524Z,74.12
2023-03-02T20:44:21.877Z,74.67
2023-03-02T20:46:22.304Z,74.98
2023-03-02T20:48:22.588Z,75.09
2023-03-02T20:50:23.054Z,75.19
2023-03-02T20:52:23.583Z,75.40
2023-03-02T20:54:23.958Z,75.95
2023-03-02T20:56:24.380Z,75.60
2023-03-02T20:58:25.499Z,75.74
2023-03-02T21:00:25.828Z,76.05
2023-03-02T21:02:26.075Z,75.74
2023-03-02T21:04:26.440Z,76.05
2023-03-02T21:06:26.765Z,75.84
2023-03-02T21:08:27.283Z,75.63
2023-03-02T21:10:27.782Z,75.74
2023-03-02T21:12:28.219Z,76.05
2023-03-02T21:14:28.770Z,75.84
2023-03-02T21:16:29.117Z,75.63
2023-03-02T21:18:29.418Z,75.78
2023-03-02T21:20:29.725Z,75.67
2023-03-02T21:22:30.574Z,76.29
2023-03-02T21:24:31.108Z,76.54
2023-03-02T21:26:31.387Z,76.64
2023-03-02T21:28:31.719Z,76.78
2023-03-02T21:30:32.027Z,77.51
2023-03-02T21:32:32.377Z,77.72
2023-03-02T21:34:32.701Z,78.55
2023-03-02T21:36:32.985Z,78.55
2023-03-02T21:38:33.390Z,78.75
2023-03-02T21:40:33.631Z,78.86
2023-03-02T21:42:33.963Z,78.78
2023-03-02T21:44:34.245Z,79.10
2023-03-02T21:46:34.877Z,79.20
2023-03-02T21:48:35.183Z,79.72
2023-03-02T21:50:35.457Z,79.44
2023-03-02T21:52:35.772Z,79.65
2023-03-02T21:54:36.104Z,79.34
2023-03-02T21:56:36.376Z,79.34
2023-03-02T21:58:36.694Z,80.42
2023-03-02T22:00:37.060Z,81.56
2023-03-02T22:02:37.420Z,81.35
2023-03-02T22:04:37.710Z,81.25
2023-03-02T22:06:38.003Z,81.67
2023-03-02T22:08:38.287Z,81.46
2023-03-02T22:10:38.579Z,80.83
2023-03-02T22:12:38.900Z,80.52
2023-03-02T22:14:39.276Z,80.98
2023-03-02T22:16:39.559Z,81.84
2023-03-02T22:18:39.832Z,83.09
2023-03-02T22:20:40.158Z,84.27
2023-03-02T22:22:40.443Z,84.48
2023-03-02T22:24:41.227Z,84.55
2023-03-02T22:26:41.514Z,84.03
2023-03-02T22:28:41.783Z,83.44
2023-03-02T22:30:42.095Z,82.82
2023-03-02T22:32:42.388Z,83.23
2023-03-02T22:34:42.685Z,83.27
2023-03-02T22:36:42.952Z,83.06
2023-03-02T22:38:43.387Z,83.27
2023-03-02T22:40:43.673Z,83.52
2023-03-02T22:42:43.973Z,84.14
2023-03-02T22:44:44.298Z,84.45
2023-03-02T22:46:44.620Z,84.98
2023-03-02T22:48:44.935Z,84.87
2023-03-02T22:50:45.215Z,84.77
2023-03-02T22:52:45.505Z,84.87
2023-03-02T22:54:45.835Z,85.08
2023-03-02T22:56:46.166Z,85.39
2023-03-02T22:58:46.433Z,85.29
2023-03-02T23:00:46.780Z,85.08
2023-03-02T23:02:47.027Z,84.66
2023-03-02T23:04:47.476Z,84.70
2023-03-02T23:06:48.600Z,84.87
2023-03-02T23:08:48.863Z,85.12
2023-03-02T23:10:49.172Z,85.64
2023-03-02T23:12:49.428Z,85.85
2023-03-02T23:14:49.766Z,86.22
2023-03-02T23:16:50.086Z,85.81
2023-03-02T23:18:50.395Z,85.19
2023-03-02T23:20:50.711Z,85.08
2023-03-02T23:22:50.994Z,84.18
2023-03-02T23:24:51.280Z,83.25
2023-03-02T23:26:51.609Z,82.76
2023-03-02T23:28:51.929Z,82.28
2023-03-02T23:30:52.238Z,82.48
2023-03-02T23:32:52.558Z,83.04
2023-03-02T23:34:52.797Z,84.30
2023-03-02T23:36:53.513Z,85.34
2023-03-02T23:38:53.812Z,86.80
2023-03-02T23:40:54.119Z,86.69
2023-03-02T23:42:54.426Z,85.97
2023-03-02T23:44:54.764Z,85.97
2023-03-02T23:46:55.217Z,87.05
2023-03-02T23:48:55.580Z,87.01
2023-03-02T23:50:55.995Z,87.47
2023-03-02T23:52:56.320Z,88.93
2023-03-02T23:54:56.638Z,89.24
2023-03-02T23:56:56.924Z,89.81
2023-03-02T23:58:57.228Z,89.70
